Time;durP1;ratioP1;P1;durP2;ratioP2;P2;SDS_P1;SDS_P2;PMS_P1;PMS_P2;Temp;Humidity;BMP_temperature;BMP_pressure;BME280_temperature;BME280_humidity;BME280_pressure;Samples;Min_cycle;Max_cycle;Signal;HPM_P1;HPM_P2
2022/01/11 00:01:16;;;;;;;46.40;20.13;;;1.80;99.90;;;;;;5076461;28;20547;-82
2022/01/11 00:03:42;;;;;;;68.43;21.65;;;1.70;99.90;;;;;;5043827;28;20036;-82
2022/01/11 00:08:58;;;;;;;51.90;19.35;;;1.70;99.90;;;;;;5090079;28;20044;-82
2022/01/11 00:11:24;;;;;;;47.17;21.17;;;1.70;99.90;;;;;;5062278;28;20075;-82
2022/01/11 00:13:50;;;;;;;43.90;22.17;;;1.60;99.90;;;;;;5059741;28;20549;-82
2022/01/11 00:16:16;;;;;;;44.03;21.35;;;1.60;99.90;;;;;;5062832;28;20048;-82
2022/01/11 00:18:41;;;;;;;45.72;20.95;;;1.60;99.90;;;;;;5092773;28;20029;-82
2022/01/11 00:21:07;;;;;;;59.13;21.60;;;1.60;99.90;;;;;;5059520;28;20029;-82
2022/01/11 00:25:59;;;;;;;57.10;23.73;;;1.60;99.90;;;;;;5060910;28;20128;-83
2022/01/11 00:28:26;;;;;;;48.33;22.10;;;1.60;99.90;;;;;;5064481;28;20036;-82
2022/01/11 00:30:52;;;;;;;56.35;22.27;;;1.60;99.90;;;;;;5062421;28;20086;-82
2022/01/11 00:33:26;;;;;;;47.53;20.77;;;1.60;99.90;;;;;;5092392;28;20517;-83
2022/01/11 00:35:59;;;;;;;60.88;22.48;;;1.60;99.90;;;;;;5078372;28;20049;-83
2022/01/11 00:38:31;;;;;;;63.17;21.70;;;1.60;99.90;;;;;;5059267;28;20299;-83
2022/01/11 00:41:00;;;;;;;66.00;24.45;;;1.60;99.90;;;;;;5067590;28;20040;-83
2022/01/11 00:43:28;;;;;;;70.47;22.85;;;1.50;99.90;;;;;;5043661;28;20390;-83
2022/01/11 00:45:55;;;;;;;67.25;21.95;;;1.50;99.90;;;;;;5084283;28;20044;-83
2022/01/11 00:48:21;;;;;;;50.60;22.67;;;1.50;99.90;;;;;;5060968;28;20068;-83
2022/01/11 00:50:48;;;;;;;67.68;22.60;;;1.60;99.90;;;;;;5044024;28;20058;-83
2022/01/11 00:53:14;;;;;;;66.65;24.85;;;1.50;99.90;;;;;;5063365;28;20513;-83
2022/01/11 00:55:40;;;;;;;53.05;21.50;;;1.60;99.90;;;;;;5053604;28;20044;-83
2022/01/11 00:58:06;;;;;;;59.80;21.25;;;1.50;99.90;;;;;;5068903;28;20067;-83
2022/01/11 01:00:35;;;;;;;87.07;24.25;;;1.50;99.90;;;;;;5059381;28;20033;-83
2022/01/11 01:03:01;;;;;;;66.85;23.23;;;1.60;99.90;;;;;;5063580;28;20036;-83
2022/01/11 01:05:27;;;;;;;62.10;23.90;;;1.50;99.90;;;;;;5044052;28;20036;-83
2022/01/11 01:07:53;;;;;;;75.60;26.10;;;1.50;99.90;;;;;;5064019;28;20036;-82
2022/01/11 01:10:40;;;;;;;67.65;22.75;;;1.50;99.90;;;;;;5081950;28;20044;-83
2022/01/11 01:13:09;;;;;;;;;;;1.50;99.90;;;;;;5063176;28;20067;-82
2022/01/11 01:15:36;;;;;;;51.88;21.98;;;1.50;99.90;;;;;;5080272;28;19957;-83
2022/01/11 01:18:03;;;;;;;51.38;22.48;;;1.40;99.90;;;;;;5066151;28;20036;-83
2022/01/11 01:20:29;;;;;;;65.32;23.17;;;1.50;99.90;;;;;;5063170;28;20040;-83
2022/01/11 01:22:55;;;;;;;75.10;24.38;;;1.50;99.90;;;;;;5046656;28;20040;-83
2022/01/11 01:25:23;;;;;;;73.97;25.63;;;1.50;99.90;;;;;;5059787;28;20577;-83
2022/01/11 01:27:49;;;;;;;64.13;24.92;;;1.50;99.90;;;;;;5097886;28;20509;-83
2022/01/11 01:30:17;;;;;;;70.43;26.23;;;1.50;99.90;;;;;;5063890;28;20478;-83
2022/01/11 01:32:43;;;;;;;68.28;24.67;;;1.60;99.90;;;;;;5064343;28;20440;-83
2022/01/11 01:35:10;;;;;;;70.75;27.33;;;1.50;99.90;;;;;;5049230;28;20051;-83
2022/01/11 01:37:35;;;;;;;78.47;26.00;;;1.60;99.90;;;;;;5045343;28;20677;-83
2022/01/11 01:40:01;;;;;;;76.72;25.08;;;1.60;99.90;;;;;;5061849;28;20051;-83
2022/01/11 01:42:29;;;;;;;90.88;27.02;;;1.60;99.90;;;;;;5067284;28;20048;-83
2022/01/11 01:44:56;;;;;;;76.68;27.20;;;1.60;99.90;;;;;;5097221;27;20044;-83
2022/01/11 01:47:21;;;;;;;62.70;25.13;;;1.60;99.90;;;;;;5066373;28;20485;-83
2022/01/11 01:49:47;;;;;;;88.55;25.65;;;1.60;99.90;;;;;;5064812;28;20036;-83
2022/01/11 01:52:14;;;;;;;93.03;26.95;;;1.60;99.90;;;;;;5095775;28;20041;-83
2022/01/11 01:54:41;;;;;;;65.63;23.50;;;1.60;99.90;;;;;;5081720;28;20041;-83
2022/01/11 01:57:11;;;;;;;92.10;26.42;;;1.60;99.90;;;;;;5067806;28;20056;-83
2022/01/11 01:59:37;;;;;;;88.20;25.83;;;1.60;99.90;;;;;;5065264;28;20105;-83
2022/01/11 02:02:05;;;;;;;81.55;25.05;;;1.60;99.90;;;;;;5094651;28;20029;-83
2022/01/11 02:04:31;;;;;;;75.97;24.38;;;1.50;99.90;;;;;;5049021;28;20509;-83
2022/01/11 02:06:56;;;;;;;91.07;25.05;;;1.50;99.90;;;;;;5065412;28;20112;-83
2022/01/11 02:09:22;;;;;;;72.15;23.88;;;1.50;99.90;;;;;;5059759;28;20524;-83
2022/01/11 02:11:48;;;;;;;87.55;24.13;;;1.50;99.90;;;;;;5050936;28;20119;-83
2022/01/11 02:14:14;;;;;;;63.92;25.05;;;1.50;99.90;;;;;;5064552;28;20411;-83
2022/01/11 02:16:40;;;;;;;70.72;25.23;;;1.50;99.90;;;;;;5050798;28;20040;-83
2022/01/11 02:19:06;;;;;;;85.57;25.88;;;1.50;99.90;;;;;;5063942;28;20052;-83
2022/01/11 02:21:32;;;;;;;89.72;24.13;;;1.60;99.90;;;;;;5097042;28;20039;-83
2022/01/11 02:23:59;;;;;;;90.82;24.15;;;1.60;99.90;;;;;;5047048;28;20032;-83
2022/01/11 02:26:25;;;;;;;84.53;25.00;;;1.60;99.90;;;;;;5064659;28;20047;-83
2022/01/11 02:28:53;;;;;;;87.35;26.08;;;1.60;99.90;;;;;;5059538;28;20033;-83
2022/01/11 02:31:19;;;;;;;81.80;24.80;;;1.60;99.90;;;;;;5039215;28;20059;-83
2022/01/11 02:33:48;;;;;;;87.82;27.48;;;1.50;99.90;;;;;;5094591;28;20040;-83
2022/01/11 02:36:20;;;;;;;102.50;26.20;;;1.60;99.90;;;;;;5044105;28;20447;-83
2022/01/11 02:38:48;;;;;;;111.20;25.65;;;1.60;99.90;;;;;;5066459;28;20727;-83
2022/01/11 02:41:14;;;;;;;108.07;25.65;;;1.60;99.90;;;;;;5078151;28;20124;-83
2022/01/11 02:43:41;;;;;;;87.28;24.48;;;1.60;99.90;;;;;;5064419;28;20127;-83
2022/01/11 02:46:07;;;;;;;95.13;23.85;;;1.50;99.90;;;;;;5075060;28;20040;-83
2022/01/11 02:48:32;;;;;;;73.30;24.05;;;1.50;99.90;;;;;;5061856;28;20056;-83
2022/01/11 02:50:58;;;;;;;81.20;23.73;;;1.50;99.90;;;;;;5065965;28;20029;-83
2022/01/11 02:53:24;;;;;;;87.75;25.40;;;1.40;99.90;;;;;;5048391;28;20086;-83
2022/01/11 02:55:50;;;;;;;103.72;23.80;;;1.40;99.90;;;;;;5062665;28;20037;-83
2022/01/11 02:58:15;;;;;;;89.13;23.63;;;1.40;99.90;;;;;;5080859;28;21018;-83
2022/01/11 03:00:41;;;;;;;76.15;23.77;;;1.40;99.90;;;;;;5049174;28;20080;-83
2022/01/11 03:03:18;;;;;;;101.15;26.42;;;1.40;99.90;;;;;;5096478;28;20040;-83
2022/01/11 03:05:56;;;;;;;93.22;24.67;;;1.40;99.90;;;;;;5063169;28;20158;-83
2022/01/11 03:08:24;;;;;;;94.53;24.20;;;1.40;99.90;;;;;;5076990;28;20036;-83
2022/01/11 03:10:50;;;;;;;86.20;23.35;;;1.40;99.90;;;;;;5062330;28;20040;-83
2022/01/11 03:13:17;;;;;;;81.47;23.88;;;1.40;99.90;;;;;;5065362;28;20505;-83
2022/01/11 03:15:44;;;;;;;78.05;22.42;;;1.40;99.90;;;;;;5093281;27;20047;-83
2022/01/11 03:18:10;;;;;;;82.57;23.95;;;1.40;99.90;;;;;;5060720;28;20401;-83
2022/01/11 03:20:38;;;;;;;69.20;23.17;;;1.40;99.90;;;;;;5079802;28;20469;-83
2022/01/11 03:23:04;;;;;;;100.25;28.17;;;1.40;99.90;;;;;;5079138;28;20040;-83
2022/01/11 03:25:30;;;;;;;77.22;24.00;;;1.40;99.90;;;;;;5099031;28;20070;-83
2022/01/11 03:27:56;;;;;;;79.32;23.10;;;1.40;99.90;;;;;;5096164;28;20485;-83
2022/01/11 03:30:21;;;;;;;73.43;24.23;;;1.40;99.90;;;;;;5045501;28;20515;-83
2022/01/11 03:32:48;;;;;;;68.05;24.23;;;1.50;99.90;;;;;;5062251;28;20047;-83
2022/01/11 03:35:14;;;;;;;77.32;24.08;;;1.50;99.90;;;;;;5044912;28;20119;-83
2022/01/11 03:37:42;;;;;;;79.25;24.75;;;1.40;99.90;;;;;;5075703;28;20039;-83
2022/01/11 03:40:11;;;;;;;60.50;22.33;;;1.40;99.90;;;;;;5076891;28;20186;-83
2022/01/11 03:42:37;;;;;;;70.70;23.77;;;1.40;99.90;;;;;;5082125;28;20032;-83
2022/01/11 03:45:05;;;;;;;59.33;22.88;;;1.40;99.90;;;;;;5074379;28;20094;-83
2022/01/11 03:47:30;;;;;;;59.78;23.02;;;1.50;99.90;;;;;;5070629;28;20033;-82
2022/01/11 03:49:56;;;;;;;56.90;23.25;;;1.50;99.90;;;;;;5095702;28;20048;-83
2022/01/11 03:52:22;;;;;;;65.50;23.60;;;1.50;99.90;;;;;;5065407;28;20414;-83
2022/01/11 03:57:24;;;;;;;49.13;23.00;;;1.50;99.90;;;;;;5091345;28;20175;-83
2022/01/11 03:59:50;;;;;;;60.88;23.95;;;1.50;99.90;;;;;;5095538;27;20125;-83
2022/01/11 04:02:15;;;;;;;58.17;25.08;;;1.40;99.90;;;;;;5078378;28;20116;-83
2022/01/11 04:04:41;;;;;;;56.00;25.13;;;1.50;99.90;;;;;;5095824;28;20150;-83
2022/01/11 04:07:07;;;;;;;63.30;24.20;;;1.40;99.90;;;;;;5047189;28;20115;-83
2022/01/11 04:09:33;;;;;;;64.75;24.65;;;1.50;99.90;;;;;;5068598;28;22101;-83
2022/01/11 04:11:59;;;;;;;51.80;24.30;;;1.50;99.90;;;;;;5057549;28;20478;-82
2022/01/11 04:14:27;;;;;;;57.38;23.77;;;1.50;99.90;;;;;;5089564;28;20053;-83
2022/01/11 04:16:53;;;;;;;56.63;23.90;;;1.40;99.90;;;;;;5044389;28;20033;-83
2022/01/11 04:19:20;;;;;;;73.05;25.92;;;1.50;99.90;;;;;;5042128;28;20044;-83
2022/01/11 04:21:46;;;;;;;53.08;24.02;;;1.50;99.90;;;;;;5057886;28;20070;-83
2022/01/11 04:24:13;;;;;;;60.13;24.85;;;1.50;99.90;;;;;;5044680;28;20067;-83
2022/01/11 04:26:39;;;;;;;62.05;24.85;;;1.50;99.90;;;;;;5057846;28;20421;-83
2022/01/11 04:29:05;;;;;;;53.20;23.50;;;1.40;99.90;;;;;;5062721;28;20041;-83
2022/01/11 04:31:31;;;;;;;63.38;24.40;;;1.40;99.90;;;;;;5064099;28;20618;-83
2022/01/11 04:33:57;;;;;;;63.80;25.25;;;1.50;99.90;;;;;;5077806;28;20036;-83
2022/01/11 04:36:22;;;;;;;61.03;24.83;;;1.40;99.90;;;;;;5049202;28;20058;-84
2022/01/11 04:38:48;;;;;;;62.05;25.00;;;1.40;99.90;;;;;;5051524;28;20031;-83
2022/01/11 04:41:14;;;;;;;58.28;24.27;;;1.40;99.90;;;;;;5064445;28;20068;-83
2022/01/11 04:43:39;;;;;;;61.72;25.83;;;1.40;99.90;;;;;;5065288;28;20790;-83
2022/01/11 04:46:05;;;;;;;57.92;24.13;;;1.40;99.90;;;;;;5064592;28;20052;-83
2022/01/11 04:48:32;;;;;;;53.42;24.15;;;1.40;99.90;;;;;;5048262;28;20478;-83
2022/01/11 04:51:03;;;;;;;65.15;26.88;;;1.40;99.90;;;;;;5079090;28;20056;-83
2022/01/11 04:53:29;;;;;;;65.95;25.83;;;1.40;99.90;;;;;;5101524;28;20063;-83
2022/01/11 04:55:56;;;;;;;62.67;25.50;;;1.40;99.90;;;;;;5063424;28;20124;-83
2022/01/11 04:58:22;;;;;;;59.78;25.73;;;1.40;99.90;;;;;;5046533;28;20037;-83
2022/01/11 05:00:48;;;;;;;55.80;24.88;;;1.40;99.90;;;;;;5097393;28;20075;-83
2022/01/11 05:03:13;;;;;;;55.40;23.45;;;1.40;99.90;;;;;;5062666;28;20036;-82
2022/01/11 05:05:39;;;;;;;58.15;25.50;;;1.40;99.90;;;;;;5064082;28;20043;-83
2022/01/11 05:08:05;;;;;;;61.33;25.85;;;1.40;99.90;;;;;;5079368;28;20436;-83
2022/01/11 05:10:31;;;;;;;60.15;25.75;;;1.40;99.90;;;;;;5049070;28;20044;-83
2022/01/11 05:12:57;;;;;;;69.35;25.33;;;1.40;99.90;;;;;;5046015;28;20125;-82
2022/01/11 05:15:25;;;;;;;62.38;25.60;;;1.40;99.90;;;;;;5046722;28;20051;-83
2022/01/11 05:17:52;;;;;;;59.40;24.33;;;1.30;99.90;;;;;;5084992;28;20024;-82
2022/01/11 05:20:19;;;;;;;59.33;24.13;;;1.30;99.90;;;;;;5047879;28;20490;-83
2022/01/11 05:22:45;;;;;;;69.05;26.20;;;1.40;99.90;;;;;;5047265;28;20124;-83
2022/01/11 05:25:12;;;;;;;62.10;25.20;;;1.40;99.90;;;;;;5068789;28;20529;-83
2022/01/11 05:27:38;;;;;;;67.63;25.25;;;1.40;99.90;;;;;;5078503;28;20531;-83
2022/01/11 05:30:05;;;;;;;67.63;27.90;;;1.30;99.90;;;;;;5046600;28;20041;-83
2022/01/11 05:32:31;;;;;;;60.83;26.15;;;1.30;99.90;;;;;;5092197;28;20061;-83
2022/01/11 05:34:56;;;;;;;67.07;27.52;;;1.30;99.90;;;;;;5047800;28;20216;-83
2022/01/11 05:37:22;;;;;;;66.53;26.88;;;1.40;99.90;;;;;;5064403;28;20028;-83
2022/01/11 05:39:49;;;;;;;67.95;27.08;;;1.40;99.90;;;;;;5049145;28;20502;-83
2022/01/11 05:42:15;;;;;;;64.78;27.30;;;1.40;99.90;;;;;;5079305;28;20091;-83
2022/01/11 05:44:41;;;;;;;55.30;26.17;;;1.30;99.90;;;;;;5063168;28;20048;-83
2022/01/11 05:47:06;;;;;;;59.30;26.75;;;1.30;99.90;;;;;;5048088;28;20032;-83
2022/01/11 05:49:32;;;;;;;68.43;27.27;;;1.30;99.90;;;;;;5095600;28;20043;-83
2022/01/11 05:51:57;;;;;;;66.80;26.55;;;1.40;99.90;;;;;;5077932;28;20047;-83
2022/01/11 05:54:23;;;;;;;64.90;26.98;;;1.40;99.90;;;;;;5076763;28;20040;-83
2022/01/11 05:56:50;;;;;;;69.60;27.98;;;1.40;99.90;;;;;;5066912;28;20067;-83
2022/01/11 05:59:16;;;;;;;68.85;27.20;;;1.40;99.90;;;;;;5079249;28;20029;-83
2022/01/11 06:01:41;;;;;;;67.00;26.65;;;1.40;99.90;;;;;;5051813;28;20070;-83
2022/01/11 06:04:07;;;;;;;67.35;27.45;;;1.40;99.90;;;;;;5063544;28;20043;-83
2022/01/11 06:06:32;;;;;;;75.70;29.42;;;1.40;99.90;;;;;;5081116;28;20063;-83
2022/01/11 06:09:00;;;;;;;70.90;29.70;;;1.30;99.90;;;;;;5066971;28;20036;-83
2022/01/11 06:11:26;;;;;;;74.38;29.33;;;1.40;99.90;;;;;;5045800;28;20101;-83
2022/01/11 06:13:52;;;;;;;71.65;28.17;;;1.40;99.90;;;;;;5045635;28;20049;-83
2022/01/11 06:16:20;;;;;;;71.55;29.38;;;1.40;99.90;;;;;;5061998;28;20037;-83
2022/01/11 06:18:46;;;;;;;67.35;27.48;;;1.40;99.90;;;;;;5064988;28;20517;-83
2022/01/11 06:21:12;;;;;;;71.95;28.42;;;1.30;99.90;;;;;;5063020;28;20052;-83
2022/01/11 06:23:38;;;;;;;72.97;28.27;;;1.40;99.90;;;;;;5042625;28;20024;-83
2022/01/11 06:26:03;;;;;;;71.82;28.15;;;1.40;99.90;;;;;;5045673;28;20044;-83
2022/01/11 06:28:29;;;;;;;68.07;30.73;;;1.40;99.90;;;;;;5079477;28;20059;-83
2022/01/11 06:30:54;;;;;;;75.82;30.05;;;1.40;99.90;;;;;;5047064;28;20055;-83
2022/01/11 06:33:20;;;;;;;74.90;30.00;;;1.40;99.90;;;;;;5062350;28;20033;-83
2022/01/11 06:35:46;;;;;;;77.85;30.55;;;1.40;99.90;;;;;;5095690;28;20046;-83
2022/01/11 06:38:12;;;;;;;72.95;29.92;;;1.40;99.90;;;;;;5045998;28;20029;-83
2022/01/11 06:40:38;;;;;;;72.40;29.02;;;1.40;99.90;;;;;;5064460;28;20050;-83
2022/01/11 06:43:04;;;;;;;81.90;30.45;;;1.40;99.90;;;;;;5093080;28;20468;-83
2022/01/11 06:45:32;;;;;;;75.68;30.25;;;1.40;99.90;;;;;;5083529;28;20032;-83
2022/01/11 06:47:57;;;;;;;69.70;28.23;;;1.40;99.90;;;;;;5081198;28;20040;-83
2022/01/11 06:50:23;;;;;;;83.03;30.25;;;1.40;99.90;;;;;;5064437;28;20516;-83
2022/01/11 06:52:48;;;;;;;83.13;31.17;;;1.40;99.90;;;;;;5060715;28;20467;-83
2022/01/11 06:55:14;;;;;;;77.03;29.17;;;1.40;99.90;;;;;;5075286;28;20063;-83
2022/01/11 06:57:40;;;;;;;78.35;31.38;;;1.40;99.90;;;;;;5036314;28;20082;-83
2022/01/11 07:00:08;;;;;;;67.35;26.75;;;1.40;99.90;;;;;;5065463;28;20097;-83
2022/01/11 07:02:33;;;;;;;77.30;30.67;;;1.40;99.90;;;;;;5061087;28;20035;-83
2022/01/11 07:04:59;;;;;;;78.78;29.20;;;1.40;99.90;;;;;;5044873;28;20040;-83
2022/01/11 07:07:25;;;;;;;86.45;32.00;;;1.40;99.90;;;;;;5045571;28;20052;-83
2022/01/11 07:09:50;;;;;;;85.28;31.42;;;1.40;99.90;;;;;;5043240;28;20039;-83
2022/01/11 07:12:16;;;;;;;83.50;30.33;;;1.40;99.90;;;;;;5039734;28;20127;-83
2022/01/11 07:14:42;;;;;;;80.18;30.77;;;1.30;99.90;;;;;;5048146;28;20155;-83
2022/01/11 07:17:07;;;;;;;77.10;30.25;;;1.30;99.90;;;;;;5049877;28;20040;-83
2022/01/11 07:19:34;;;;;;;75.50;30.27;;;1.40;99.90;;;;;;5044403;28;20042;-83
2022/01/11 07:22:00;;;;;;;71.05;28.85;;;1.30;99.90;;;;;;5093186;28;20035;-82
2022/01/11 07:24:27;;;;;;;72.15;27.77;;;1.30;99.90;;;;;;5073673;28;20037;-83
2022/01/11 07:26:53;;;;;;;70.25;28.20;;;1.30;99.90;;;;;;5071104;28;20656;-83
2022/01/11 07:29:19;;;;;;;68.28;28.80;;;1.20;99.90;;;;;;5073554;28;20051;-83
2022/01/11 07:31:44;;;;;;;73.10;28.77;;;1.30;99.90;;;;;;5046488;28;21874;-83
2022/01/11 07:34:10;;;;;;;76.88;31.10;;;1.20;99.90;;;;;;5094180;28;20044;-83
2022/01/11 07:36:36;;;;;;;80.07;31.40;;;1.20;99.90;;;;;;5044928;28;20031;-83
2022/01/11 07:39:05;;;;;;;70.20;28.45;;;1.20;99.90;;;;;;5059131;28;20456;-83
2022/01/11 07:41:31;;;;;;;67.25;26.67;;;1.20;99.90;;;;;;5050531;28;20089;-83
2022/01/11 07:43:57;;;;;;;72.95;29.17;;;1.20;99.90;;;;;;5052026;28;20032;-83
2022/01/11 07:46:23;;;;;;;73.47;28.52;;;1.30;99.90;;;;;;5063424;28;20040;-83
2022/01/11 07:48:50;;;;;;;74.97;30.45;;;1.20;99.90;;;;;;5045190;28;20045;-83
2022/01/11 07:51:15;;;;;;;68.95;27.88;;;1.20;99.90;;;;;;5056318;28;20043;-83
2022/01/11 07:53:41;;;;;;;65.18;27.05;;;1.30;99.90;;;;;;5063303;28;20029;-84
2022/01/11 07:56:07;;;;;;;60.95;25.30;;;1.30;99.90;;;;;;5060114;28;20409;-83
2022/01/11 07:58:32;;;;;;;64.50;25.75;;;1.30;99.90;;;;;;5063447;28;20412;-82
2022/01/11 08:00:58;;;;;;;63.17;25.85;;;1.20;99.90;;;;;;5064802;28;20039;-82
2022/01/11 08:03:24;;;;;;;56.70;23.65;;;1.30;99.90;;;;;;5058396;28;20048;-82
2022/01/11 08:05:51;;;;;;;57.42;23.95;;;1.30;99.90;;;;;;5042572;28;20044;-82
2022/01/11 08:08:16;;;;;;;54.15;22.48;;;1.30;99.90;;;;;;5057241;28;20162;-83
2022/01/11 08:10:42;;;;;;;57.38;23.35;;;1.30;99.90;;;;;;5048989;28;20156;-83
2022/01/11 08:13:10;;;;;;;52.15;22.42;;;1.30;99.90;;;;;;5044667;28;20040;-83
2022/01/11 08:15:37;;;;;;;51.90;22.95;;;1.30;99.90;;;;;;5099589;27;20051;-83
2022/01/11 08:18:05;;;;;;;50.83;21.67;;;1.30;99.90;;;;;;5064947;28;20044;-84
2022/01/11 08:20:31;;;;;;;49.55;22.02;;;1.40;99.90;;;;;;5041036;28;20451;-83
2022/01/11 08:22:57;;;;;;;52.40;21.20;;;1.30;99.90;;;;;;5071508;28;20468;-84
2022/01/11 08:25:23;;;;;;;47.75;20.75;;;1.40;99.90;;;;;;5076463;28;20045;-83
2022/01/11 08:27:49;;;;;;;48.88;20.63;;;1.40;99.90;;;;;;5047692;28;20482;-84
2022/01/11 08:30:14;;;;;;;46.47;20.15;;;1.40;99.90;;;;;;5091819;28;20036;-83
2022/01/11 08:32:40;;;;;;;42.83;20.35;;;1.40;99.90;;;;;;5061167;28;20131;-83
2022/01/11 08:35:06;;;;;;;40.67;19.45;;;1.40;99.90;;;;;;5077398;28;20045;-84
2022/01/11 08:37:32;;;;;;;39.85;19.05;;;1.40;99.90;;;;;;5042051;28;20036;-83
2022/01/11 08:39:58;;;;;;;43.35;20.27;;;1.40;99.90;;;;;;5062016;28;20041;-83
2022/01/11 08:42:24;;;;;;;43.95;19.33;;;1.50;99.90;;;;;;5078374;28;20039;-83
2022/01/11 08:44:50;;;;;;;40.70;19.60;;;1.50;99.90;;;;;;5062297;28;20546;-84
2022/01/11 08:47:17;;;;;;;44.15;19.60;;;1.50;99.90;;;;;;5086973;28;20135;-83
2022/01/11 08:49:43;;;;;;;41.00;18.05;;;1.50;99.90;;;;;;5061344;28;20044;-83
2022/01/11 08:52:09;;;;;;;39.10;19.02;;;1.50;99.90;;;;;;5087554;28;20041;-83
2022/01/11 08:54:35;;;;;;;38.28;18.55;;;1.50;99.90;;;;;;5063016;28;20048;-83
2022/01/11 08:57:01;;;;;;;40.53;19.25;;;1.50;99.90;;;;;;5057730;28;20122;-83
2022/01/11 08:59:27;;;;;;;33.67;17.20;;;1.50;99.90;;;;;;5079335;28;20063;-85
2022/01/11 09:01:58;;;;;;;39.20;17.60;;;1.60;99.90;;;;;;5070444;28;20041;-83
2022/01/11 09:04:24;;;;;;;31.90;16.70;;;1.60;99.90;;;;;;5064699;28;20107;-84
2022/01/11 09:06:51;;;;;;;32.55;16.83;;;1.60;99.90;;;;;;5042910;28;20075;-83
2022/01/11 09:09:18;;;;;;;31.13;15.05;;;1.60;99.90;;;;;;5064060;28;20067;-84
2022/01/11 09:11:45;;;;;;;26.27;15.23;;;1.60;99.90;;;;;;5070783;28;20569;-83
2022/01/11 09:14:11;;;;;;;31.42;15.25;;;1.60;99.90;;;;;;5089791;28;20095;-83
2022/01/11 09:16:37;;;;;;;29.23;14.68;;;1.60;99.90;;;;;;5075678;28;20418;-83
2022/01/11 09:19:03;;;;;;;28.92;15.10;;;1.60;99.90;;;;;;5048851;28;20033;-83
2022/01/11 09:21:31;;;;;;;29.65;14.77;;;1.60;99.90;;;;;;5051255;28;20448;-84
2022/01/11 09:23:56;;;;;;;30.38;14.55;;;1.60;99.90;;;;;;5050331;28;20029;-83
2022/01/11 09:26:22;;;;;;;28.98;14.85;;;1.60;99.90;;;;;;5049069;28;20039;-82
2022/01/11 09:28:48;;;;;;;30.60;15.32;;;1.60;99.90;;;;;;5050240;28;20032;-82
2022/01/11 09:31:14;;;;;;;33.15;16.27;;;1.60;99.90;;;;;;5092687;28;20044;-83
2022/01/11 09:33:40;;;;;;;32.17;16.73;;;1.70;99.90;;;;;;5081318;28;20074;-83
2022/01/11 09:36:06;;;;;;;31.13;16.55;;;1.60;99.90;;;;;;5067901;28;20041;-83
2022/01/11 09:38:31;;;;;;;33.42;15.10;;;1.70;99.90;;;;;;5067029;28;20459;-83
2022/01/11 09:40:58;;;;;;;31.88;15.93;;;1.70;99.90;;;;;;5051127;28;20051;-85
2022/01/11 09:43:26;;;;;;;29.17;14.93;;;1.70;99.90;;;;;;5053376;28;20039;-85
2022/01/11 09:45:53;;;;;;;30.63;15.80;;;1.70;99.90;;;;;;5057491;28;20437;-84
2022/01/11 09:48:23;;;;;;;30.17;14.70;;;1.70;99.90;;;;;;5048831;28;20040;-85
2022/01/11 09:50:49;;;;;;;30.92;15.43;;;1.70;99.90;;;;;;5066696;28;20056;-83
2022/01/11 09:53:15;;;;;;;31.58;14.98;;;1.80;99.90;;;;;;5065268;28;20539;-85
2022/01/11 09:55:42;;;;;;;31.40;15.95;;;1.70;99.90;;;;;;5062884;28;20342;-85
2022/01/11 09:58:08;;;;;;;31.10;15.75;;;1.70;99.90;;;;;;5074696;28;20386;-84
2022/01/11 10:00:34;;;;;;;28.60;16.00;;;1.70;99.90;;;;;;5095383;27;20032;-85
2022/01/11 10:03:00;;;;;;;27.48;15.10;;;1.70;99.90;;;;;;5046631;28;20035;-84
2022/01/11 10:05:25;;;;;;;28.85;15.27;;;1.70;99.90;;;;;;5061822;28;20037;-85
2022/01/11 10:07:52;;;;;;;31.83;16.20;;;1.70;99.90;;;;;;5067402;28;20033;-86
2022/01/11 10:10:24;;;;;;;29.60;14.32;;;1.70;99.90;;;;;;5082084;28;20048;-85
2022/01/11 10:12:52;;;;;;;28.70;14.85;;;1.80;99.90;;;;;;5095165;28;20122;-84
2022/01/11 10:15:36;;;;;;;29.42;15.50;;;1.90;99.90;;;;;;5054752;28;20248;-87
2022/01/11 10:18:03;;;;;;;27.52;14.57;;;1.90;99.90;;;;;;5056136;28;20358;-87
2022/01/11 10:20:29;;;;;;;28.08;14.40;;;1.90;99.90;;;;;;5051789;28;20036;-87
2022/01/11 10:23:00;;;;;;;29.58;14.88;;;1.90;99.90;;;;;;5070260;28;20036;-88
2022/01/11 10:25:28;;;;;;;28.08;15.35;;;1.90;99.90;;;;;;5068314;28;20044;-86
2022/01/11 10:28:03;;;;;;;29.60;16.00;;;1.90;99.90;;;;;;5059271;28;20041;-86
2022/01/11 10:30:32;;;;;;;33.75;15.93;;;1.90;99.90;;;;;;5044989;28;20471;-86
2022/01/11 10:33:04;;;;;;;29.27;14.52;;;1.90;99.90;;;;;;5096022;27;20044;-86
2022/01/11 10:35:42;;;;;;;31.25;15.90;;;2.00;99.90;;;;;;5090300;27;20044;-86
2022/01/11 10:38:10;;;;;;;32.38;16.33;;;2.00;99.90;;;;;;5095963;28;20509;-87
2022/01/11 10:40:40;;;;;;;29.73;14.80;;;2.00;99.90;;;;;;5079136;28;20916;-79
2022/01/11 10:43:15;;;;;;;33.08;15.75;;;2.10;99.90;;;;;;5061505;28;20033;-84
2022/01/11 10:45:46;;;;;;;30.55;14.90;;;2.20;99.90;;;;;;5058517;28;21483;-85
2022/01/11 10:48:20;;;;;;;35.78;16.40;;;2.20;99.90;;;;;;5094448;28;20135;-84
2022/01/11 10:50:49;;;;;;;32.67;15.73;;;2.20;99.90;;;;;;5059817;28;20167;-84
2022/01/11 10:53:23;;;;;;;33.28;16.58;;;2.20;99.90;;;;;;5077220;28;20036;-87
2022/01/11 10:55:51;;;;;;;35.35;17.95;;;2.30;99.90;;;;;;5099018;27;20041;-86
2022/01/11 10:58:20;;;;;;;34.33;16.30;;;2.30;99.90;;;;;;5056919;28;20561;-86
2022/01/11 11:00:53;;;;;;;32.15;15.60;;;2.30;99.90;;;;;;5060922;28;20063;-86
2022/01/11 11:03:29;;;;;;;35.00;16.48;;;2.40;99.90;;;;;;5038714;28;20036;-86
2022/01/11 11:06:00;;;;;;;32.55;16.00;;;2.40;99.90;;;;;;5060791;28;20041;-86
2022/01/11 11:08:33;;;;;;;31.48;16.85;;;2.40;99.90;;;;;;5042695;28;20052;-85
2022/01/11 11:11:00;;;;;;;33.95;16.02;;;2.50;99.90;;;;;;5068988;28;20033;-85
2022/01/11 11:13:34;;;;;;;29.08;15.75;;;2.50;99.90;;;;;;5086754;28;20506;-85
2022/01/11 11:16:17;;;;;;;32.95;16.13;;;2.50;99.90;;;;;;5075806;28;20398;-84
2022/01/11 11:18:48;;;;;;;29.15;14.80;;;2.60;99.90;;;;;;5074513;28;20506;-84
2022/01/11 11:21:26;;;;;;;30.90;15.07;;;2.60;99.90;;;;;;5072067;28;20060;-85
2022/01/11 11:23:55;;;;;;;29.27;14.98;;;2.60;99.90;;;;;;5041616;28;20041;-85
2022/01/11 11:26:24;;;;;;;32.15;15.93;;;2.60;99.90;;;;;;5057044;28;20040;-85
2022/01/11 11:28:50;;;;;;;34.97;14.73;;;2.60;99.90;;;;;;5038299;28;20046;-85
2022/01/11 11:31:16;;;;;;;29.92;13.98;;;2.70;99.90;;;;;;5041711;28;20157;-85
2022/01/11 11:33:42;;;;;;;27.35;13.80;;;2.70;99.90;;;;;;5058421;28;20032;-85
2022/01/11 11:36:15;;;;;;;31.75;14.65;;;2.70;99.90;;;;;;5075122;28;20541;-84
2022/01/11 11:38:58;;;;;;;26.50;13.52;;;2.70;99.90;;;;;;5061318;28;20474;-84
2022/01/11 11:41:26;;;;;;;24.17;13.20;;;2.70;99.90;;;;;;5045508;28;20082;-85
2022/01/11 11:44:13;;;;;;;25.13;13.13;;;2.80;99.90;;;;;;5071696;28;20028;-84
2022/01/11 11:47:03;;;;;;;29.48;14.10;;;2.80;99.90;;;;;;5091903;28;20051;-84
2022/01/11 11:49:45;;;;;;;28.70;13.82;;;2.80;99.90;;;;;;5041149;28;20139;-85
2022/01/11 11:52:31;;;;;;;30.05;14.93;;;2.90;99.90;;;;;;5037868;28;20034;-85
2022/01/11 11:55:29;;;;;;;27.02;13.23;;;2.90;99.90;;;;;;5059134;28;20380;-88
2022/01/11 11:57:58;;;;;;;28.35;14.38;;;2.90;99.90;;;;;;5078224;28;20101;-84
2022/01/11 12:00:33;;;;;;;29.00;14.50;;;3.00;99.90;;;;;;5088059;28;20551;-84
2022/01/11 12:03:19;;;;;;;30.42;14.73;;;3.00;99.90;;;;;;5066251;28;20090;-84
2022/01/11 12:05:47;;;;;;;29.45;14.48;;;3.10;99.90;;;;;;5047526;28;20045;-84
2022/01/11 12:08:38;;;;;;;28.52;12.77;;;3.20;99.90;;;;;;5046885;28;20079;-84
2022/01/11 12:11:10;;;;;;;30.70;14.43;;;3.30;99.90;;;;;;5047062;28;20099;-84
2022/01/11 12:13:39;;;;;;;28.73;13.85;;;3.40;99.90;;;;;;5030027;28;20072;-84
2022/01/11 12:16:24;;;;;;;33.25;13.98;;;3.50;99.90;;;;;;5031281;28;20454;-84
2022/01/11 12:18:52;;;;;;;30.25;13.40;;;3.60;99.90;;;;;;5050604;28;20047;-84
2022/01/11 12:21:20;;;;;;;24.00;13.13;;;3.60;99.90;;;;;;5049415;28;20115;-84
2022/01/11 12:23:47;;;;;;;25.45;12.75;;;3.60;99.90;;;;;;5067271;28;20089;-84
2022/01/11 12:26:20;;;;;;;25.10;12.20;;;3.70;99.90;;;;;;5067674;28;20123;-85
2022/01/11 12:29:05;;;;;;;25.77;12.38;;;3.70;99.90;;;;;;5050284;28;20044;-84
2022/01/11 12:31:40;;;;;;;26.48;13.02;;;3.80;99.90;;;;;;5067336;28;20044;-84
2022/01/11 12:34:11;;;;;;;28.45;12.52;;;3.80;99.90;;;;;;5050210;28;20049;-84
2022/01/11 12:36:52;;;;;;;23.63;12.43;;;3.90;99.90;;;;;;5064979;28;20521;-84
2022/01/11 12:39:19;;;;;;;26.38;12.50;;;3.90;99.90;;;;;;5049997;28;20033;-84
2022/01/11 12:41:46;;;;;;;26.60;12.05;;;3.90;99.90;;;;;;5066722;28;20039;-84
2022/01/11 12:46:59;;;;;;;25.98;11.98;;;4.00;99.90;;;;;;5060219;28;20093;-84
2022/01/11 12:49:26;;;;;;;25.08;11.93;;;4.00;99.90;;;;;;5071179;28;20523;-84
2022/01/11 12:51:57;;;;;;;30.58;12.32;;;4.00;99.90;;;;;;5046197;28;20380;-85